Time;durP1;ratioP1;P1;durP2;ratioP2;P2;SDS_P1;SDS_P2;PMS_P1;PMS_P2;Temp;Humidity;BMP_temperature;BMP_pressure;BME280_temperature;BME280_humidity;BME280_pressure;Samples;Min_cycle;Max_cycle;Signal;HPM_P1;HPM_P2
2023/01/30 00:01:32;;;;;;;;;;;4.80;99.90;;;;;;5073381;28;19940;-80
2023/01/30 00:03:59;;;;;;;;;;;4.30;99.90;;;;;;5071088;28;19924;-80
2023/01/30 00:06:26;;;;;;;;;;;4.80;99.90;;;;;;5069304;28;20002;-81
2023/01/30 00:08:53;;;;;;;;;;;4.90;99.90;;;;;;5065444;28;19935;-83
2023/01/30 00:11:20;;;;;;;;;;;4.90;99.90;;;;;;5070590;28;19932;-81
2023/01/30 00:13:47;;;;;;;;;;;4.90;99.90;;;;;;5052637;28;20269;-82
2023/01/30 00:16:14;;;;;;;;;;;4.80;99.90;;;;;;5073076;28;19948;-80
2023/01/30 00:18:42;;;;;;;;;;;5.00;99.90;;;;;;5054309;28;19959;-81
2023/01/30 00:21:10;;;;;;;;;;;5.00;99.90;;;;;;5072778;28;20409;-81
2023/01/30 00:23:37;;;;;;;;;;;5.00;99.90;;;;;;5070805;28;19925;-81
2023/01/30 00:26:04;;;;;;;;;;;5.00;99.90;;;;;;5053154;28;19936;-81
2023/01/30 00:28:31;;;;;;;;;;;5.10;99.90;;;;;;5071426;28;19974;-81
2023/01/30 00:30:57;;;;;;;;;;;4.70;99.90;;;;;;5052484;28;19928;-81
2023/01/30 00:33:25;;;;;;;;;;;5.10;99.90;;;;;;5050617;28;19940;-81
2023/01/30 00:35:54;;;;;;;;;;;5.10;99.90;;;;;;5056640;28;19924;-81
2023/01/30 00:38:21;;;;;;;;;;;5.10;99.90;;;;;;5072595;28;19935;-81
2023/01/30 00:40:48;;;;;;;;;;;5.10;99.90;;;;;;5057137;28;19928;-81
2023/01/30 00:48:48;;;;;;;;;;;5.30;99.90;;;;;;5057305;28;19920;-81
2023/01/30 00:51:16;;;;;;;;;;;5.20;99.90;;;;;;5065204;28;19935;-81
2023/01/30 00:53:42;;;;;;;;;;;5.20;99.90;;;;;;5054292;28;19936;-80
2023/01/30 00:56:09;;;;;;;;;;;5.20;99.90;;;;;;5074360;28;19928;-80
2023/01/30 00:58:36;;;;;;;;;;;5.30;99.90;;;;;;5075344;28;20421;-81
2023/01/30 01:01:03;;;;;;;;;;;5.20;99.90;;;;;;5059449;28;20011;-81
2023/01/30 01:03:29;;;;;;;;;;;5.30;99.90;;;;;;5061373;28;19925;-81
2023/01/30 01:05:56;;;;;;;;;;;5.30;99.90;;;;;;5057028;28;19932;-81
2023/01/30 01:08:24;;;;;;;;;;;5.30;99.90;;;;;;5055673;28;20515;-81
2023/01/30 01:10:51;;;;;;;;;;;5.00;99.90;;;;;;5054821;28;19928;-81
2023/01/30 01:13:17;;;;;;;;;;;5.30;99.90;;;;;;5074868;28;19991;-81
2023/01/30 01:15:44;;;;;;;;;;;5.30;99.90;;;;;;5055158;28;19935;-81
2023/01/30 01:18:11;;;;;;;;;;;5.80;99.90;;;;;;5075270;28;19929;-81
2023/01/30 01:20:38;;;;;;;;;;;5.40;99.90;;;;;;5057357;28;20401;-81
2023/01/30 01:23:04;;;;;;;;;;;5.40;99.90;;;;;;5073497;28;19943;-81
2023/01/30 01:25:32;;;;;;;;;;;5.40;99.90;;;;;;5069852;28;19934;-81
2023/01/30 01:28:00;;;;;;;;;;;5.40;99.90;;;;;;5056443;28;19928;-81
2023/01/30 01:30:26;;;;;;;;;;;5.40;99.90;;;;;;5075895;28;19932;-81
2023/01/30 01:32:53;;;;;;;;;;;5.40;99.90;;;;;;5063344;28;19968;-81
2023/01/30 01:35:20;;;;;;;;;;;5.50;99.90;;;;;;5075057;28;19928;-81
2023/01/30 01:37:46;;;;;;;;;;;5.40;99.90;;;;;;5047940;28;19928;-80
2023/01/30 01:43:03;;;;;;;;;;;5.60;99.90;;;;;;5053323;28;19956;-80
2023/01/30 01:45:31;;;;;;;;;;;5.50;99.90;;;;;;5051374;28;19952;-80
2023/01/30 01:48:00;;;;;;;;;;;5.60;99.90;;;;;;5069727;28;19935;-80
2023/01/30 01:50:28;;;;;;;;;;;5.50;99.90;;;;;;5044024;28;19913;-81
2023/01/30 01:52:57;;;;;;;;;;;5.60;99.90;;;;;;5078846;28;20466;-80
2023/01/30 01:55:24;;;;;;;;;;;5.30;99.90;;;;;;5096364;28;19952;-81
2023/01/30 01:57:52;;;;;;;;;;;5.60;99.90;;;;;;5094858;28;19970;-81
2023/01/30 02:00:22;;;;;;;;;;;5.70;99.90;;;;;;5082876;28;19924;-80
2023/01/30 02:02:51;;;;;;;;;;;5.70;99.90;;;;;;5065076;28;19924;-80
2023/01/30 02:05:19;;;;;;;;;;;5.50;99.90;;;;;;5072654;28;19939;-81
2023/01/30 02:07:47;;;;;;;;;;;5.70;99.90;;;;;;5067934;28;19933;-81
2023/01/30 02:10:17;;;;;;;;;;;5.70;99.90;;;;;;5084946;22;19935;-71
2023/01/30 02:12:45;;;;;;;;;;;5.70;99.90;;;;;;5070696;28;20419;-71
2023/01/30 02:15:11;;;;;;;;;;;5.80;99.90;;;;;;5070992;28;19924;-71
2023/01/30 02:17:40;;;;;;;;;;;5.70;99.90;;;;;;5088382;28;20346;-72
2023/01/30 02:20:11;;;;;;;;;;;5.80;99.90;;;;;;5090972;28;19931;-72
2023/01/30 02:23:08;;;;;;;;;;;5.80;99.90;;;;;;5088302;28;19960;-72
2023/01/30 02:25:50;;;;;;;;;;;5.90;99.90;;;;;;5080234;28;19925;-72
2023/01/30 02:28:31;;;;;;;;;;;5.90;99.90;;;;;;5089296;28;20475;-72
2023/01/30 02:31:07;;;;;;;;;;;5.90;99.90;;;;;;5076464;28;19928;-72
2023/01/30 02:33:38;;;;;;;;;;;5.90;99.90;;;;;;5091025;28;19924;-72
2023/01/30 02:36:11;;;;;;;;;;;5.90;99.90;;;;;;5087340;28;19963;-72
2023/01/30 02:38:41;;;;;;;;;;;6.20;99.90;;;;;;5088734;28;19935;-72
2023/01/30 02:41:14;;;;;;;;;;;6.10;99.90;;;;;;5085596;28;19935;-72
2023/01/30 02:43:45;;;;;;;;;;;6.00;99.90;;;;;;5085402;28;19924;-72
2023/01/30 02:46:17;;;;;;;;;;;5.50;99.90;;;;;;5084176;28;19939;-71
2023/01/30 02:48:45;;;;;;;;;;;6.00;99.90;;;;;;5090040;28;19924;-71
2023/01/30 02:51:14;;;;;;;;;;;6.00;99.90;;;;;;5087784;28;19931;-72
2023/01/30 02:53:40;;;;;;;;;;;6.10;99.90;;;;;;5089729;28;19928;-72
2023/01/30 02:56:07;;;;;;;;;;;6.00;99.90;;;;;;5084194;28;20082;-72
2023/01/30 02:58:37;;;;;;;;;;;6.00;99.90;;;;;;5084478;28;19924;-72
2023/01/30 03:01:25;;;;;;;;;;;6.00;99.90;;;;;;5069649;28;19925;-72
2023/01/30 03:04:01;;;;;;;;;;;6.00;99.90;;;;;;5069919;28;19935;-72
2023/01/30 03:06:36;;;;;;;;;;;6.20;99.90;;;;;;5087674;28;19931;-72
2023/01/30 03:09:06;;;;;;;;;;;6.10;99.90;;;;;;5086546;28;19964;-71
2023/01/30 03:11:38;;;;;;;;;;;6.10;99.90;;;;;;5089274;28;19924;-72
2023/01/30 03:14:09;;;;;;;;;;;6.10;99.90;;;;;;5088787;28;19934;-72
2023/01/30 03:16:37;;;;;;;;;;;6.10;99.90;;;;;;5091057;28;19993;-72
2023/01/30 03:19:10;;;;;;;;;;;6.10;99.90;;;;;;5087019;28;19924;-72
2023/01/30 03:21:39;;;;;;;;;;;6.10;99.90;;;;;;5085007;28;20051;-71
2023/01/30 03:24:07;;;;;;;;;;;6.10;99.90;;;;;;5088596;28;20194;-72
2023/01/30 03:26:37;;;;;;;;;;;5.90;99.90;;;;;;5087594;28;20353;-71
2023/01/30 03:29:04;;;;;;;;;;;6.20;99.90;;;;;;5102877;28;19924;-72
2023/01/30 03:31:30;;;;;;;;;;;6.20;99.90;;;;;;5087017;28;19924;-71
2023/01/30 03:33:57;;;;;;;;;;;6.20;99.90;;;;;;5082486;28;19935;-72
2023/01/30 03:36:25;;;;;;;;;;;6.20;99.90;;;;;;5087816;28;20266;-72
2023/01/30 03:38:53;;;;;;;;;;;6.20;99.90;;;;;;5091204;28;19932;-72
2023/01/30 03:41:21;;;;;;;;;;;6.10;99.90;;;;;;5087836;28;19928;-72
2023/01/30 03:43:48;;;;;;;;;;;6.10;99.90;;;;;;5094920;28;19924;-72
2023/01/30 03:46:15;;;;;;;;;;;6.20;99.90;;;;;;5087455;28;19963;-72
2023/01/30 03:48:42;;;;;;;;;;;6.20;99.90;;;;;;5086449;28;20582;-71
2023/01/30 03:51:12;;;;;;;;;;;5.80;99.90;;;;;;5087869;28;19939;-72
2023/01/30 03:53:40;;;;;;;;;;;6.20;99.90;;;;;;5086588;28;19983;-72
2023/01/30 03:56:06;;;;;;;;;;;6.20;99.90;;;;;;5086834;28;19930;-72
2023/01/30 03:58:35;;;;;;;;;;;6.20;99.90;;;;;;5086692;28;20381;-72
2023/01/30 04:01:14;;;;;;;;;;;6.20;99.90;;;;;;5085720;28;19981;-72
2023/01/30 04:03:41;;;;;;;;;;;6.20;99.90;;;;;;5086360;28;20034;-72
2023/01/30 04:06:08;;;;;;;;;;;6.20;99.90;;;;;;5086740;28;20015;-72
2023/01/30 04:08:34;;;;;;;;;;;6.20;99.90;;;;;;5085854;28;20396;-71
2023/01/30 04:11:03;;;;;;;;;;;6.20;99.90;;;;;;5086580;28;20308;-72
2023/01/30 04:13:30;;;;;;;;;;;6.30;99.90;;;;;;5089466;28;19935;-72
2023/01/30 04:16:12;;;;;;;;;;;6.30;99.90;;;;;;5088319;28;19928;-72
2023/01/30 04:18:57;;;;;;;;;;;6.30;99.90;;;;;;5088041;28;19959;-72
2023/01/30 04:21:26;;;;;;;;;;;6.30;99.90;;;;;;5088691;28;20413;-72
2023/01/30 04:23:53;;;;;;;;;;;6.30;99.90;;;;;;5083677;28;19932;-72
2023/01/30 04:26:21;;;;;;;;;;;6.20;99.90;;;;;;5087928;28;19928;-72
2023/01/30 04:28:48;;;;;;;;;;;6.30;99.90;;;;;;5086447;28;19927;-72
2023/01/30 04:31:15;;;;;;;;;;;6.20;99.90;;;;;;5086223;28;20019;-72
2023/01/30 04:34:02;;;;;;;;;;;6.30;99.90;;;;;;5080100;28;19974;-72
2023/01/30 04:36:29;;;;;;;;;;;6.30;99.90;;;;;;5082486;28;19936;-72
2023/01/30 04:38:57;;;;;;;;;;;6.20;99.90;;;;;;5086504;28;19939;-72
2023/01/30 04:41:25;;;;;;;;;;;6.30;99.90;;;;;;5092298;28;19932;-72
2023/01/30 04:43:57;;;;;;;;;;;6.20;99.90;;;;;;5090808;28;19932;-72
2023/01/30 04:46:32;;;;;;;;;;;6.30;99.90;;;;;;5090341;28;19931;-72
2023/01/30 04:48:58;;;;;;;;;;;6.30;99.90;;;;;;5085807;28;19928;-73
2023/01/30 04:51:26;;;;;;;;;;;6.30;99.90;;;;;;5086411;28;19928;-73
2023/01/30 04:53:53;;;;;;;;;;;6.20;99.90;;;;;;5086125;28;19932;-72
2023/01/30 04:56:19;;;;;;;;;;;6.30;99.90;;;;;;5086336;28;20015;-72
2023/01/30 04:58:50;;;;;;;;;;;6.30;99.90;;;;;;5085738;28;20635;-72
2023/01/30 05:01:21;;;;;;;;;;;6.30;99.90;;;;;;5083162;28;19956;-73
2023/01/30 05:03:49;;;;;;;;;;;6.30;99.90;;;;;;5085923;28;19924;-73
2023/01/30 05:06:16;;;;;;;;;;;6.30;99.90;;;;;;5087599;28;19931;-72
2023/01/30 05:08:42;;;;;;;;;;;6.40;99.90;;;;;;5083723;28;19924;-72
2023/01/30 05:11:09;;;;;;;;;;;6.30;99.90;;;;;;5087018;28;19935;-72
2023/01/30 05:13:35;;;;;;;;;;;6.40;99.90;;;;;;5086239;28;19924;-72
2023/01/30 05:16:04;;;;;;;;;;;6.40;99.90;;;;;;5086967;28;19928;-72
2023/01/30 05:18:31;;;;;;;;;;;6.40;99.90;;;;;;5087279;28;20393;-72
2023/01/30 05:21:02;;;;;;;;;;;5.90;99.90;;;;;;5089334;28;19928;-72
2023/01/30 05:23:30;;;;;;;;;;;6.50;99.90;;;;;;5091803;28;19935;-72
2023/01/30 05:25:56;;;;;;;;;;;6.50;99.90;;;;;;5090535;28;19944;-72
2023/01/30 05:28:23;;;;;;;;;;;6.50;99.90;;;;;;5090247;28;20293;-73
2023/01/30 05:30:50;;;;;;;;;;;6.60;99.90;;;;;;5091078;28;19934;-72
2023/01/30 05:33:18;;;;;;;;;;;6.60;99.90;;;;;;5090394;28;19928;-72
2023/01/30 05:35:46;;;;;;;;;;;6.70;99.90;;;;;;5087928;28;19931;-73
2023/01/30 05:38:13;;;;;;;;;;;7.10;99.90;;;;;;5088170;28;19924;-72
2023/01/30 05:40:39;;;;;;;;;;;6.70;99.90;;;;;;5087351;28;19928;-72
2023/01/30 05:43:06;;;;;;;;;;;6.70;99.90;;;;;;5095926;28;19928;-73
2023/01/30 05:45:33;;;;;;;;;;;;;;;;;;5089643;28;19927;-72
2023/01/30 05:47:59;;;;;;;;;;;6.80;99.90;;;;;;5089768;28;19973;-72
2023/01/30 05:50:27;;;;;;;;;;;6.90;99.90;;;;;;5089960;28;19927;-72
2023/01/30 05:52:54;;;;;;;;;;;7.00;99.90;;;;;;5085167;28;19938;-72
2023/01/30 05:55:21;;;;;;;;;;;6.90;99.90;;;;;;5090755;28;19970;-72
2023/01/30 05:57:47;;;;;;;;;;;6.90;99.90;;;;;;5086827;28;19928;-72
2023/01/30 06:00:15;;;;;;;;;;;6.90;99.90;;;;;;5085967;28;20043;-72
2023/01/30 06:02:41;;;;;;;;;;;6.90;99.90;;;;;;5087620;28;19934;-72
2023/01/30 06:05:08;;;;;;;;;;;6.90;99.90;;;;;;5087735;28;20396;-72
2023/01/30 06:07:36;;;;;;;;;;;7.00;99.90;;;;;;5090042;28;19928;-72
2023/01/30 06:10:03;;;;;;;;;;;6.90;99.90;;;;;;5086689;28;20767;-72
2023/01/30 06:12:30;;;;;;;;;;;7.00;99.90;;;;;;5087291;28;19955;-72
2023/01/30 06:14:57;;;;;;;;;;;7.00;99.90;;;;;;5089306;28;19928;-72
2023/01/30 06:17:23;;;;;;;;;;;7.00;99.90;;;;;;5088513;28;19977;-73
2023/01/30 06:19:50;;;;;;;;;;;7.10;99.90;;;;;;5090785;28;20385;-72
2023/01/30 06:22:17;;;;;;;;;;;7.10;99.90;;;;;;5091056;28;20400;-71
2023/01/30 06:24:45;;;;;;;;;;;7.10;99.90;;;;;;5099021;28;20023;-72
2023/01/30 06:27:13;;;;;;;;;;;7.10;99.90;;;;;;5091433;28;19928;-72
2023/01/30 06:29:39;;;;;;;;;;;7.10;99.90;;;;;;5089385;28;19928;-72
2023/01/30 06:32:08;;;;;;;;;;;7.10;99.90;;;;;;5089037;28;19924;-71
2023/01/30 06:34:35;;;;;;;;;;;7.20;99.90;;;;;;5088525;28;19928;-71
2023/01/30 06:37:01;;;;;;;;;;;7.20;99.90;;;;;;5089573;28;19928;-71
2023/01/30 06:39:28;;;;;;;;;;;7.20;99.90;;;;;;5089664;28;19928;-72
2023/01/30 06:41:56;;;;;;;;;;;7.30;99.90;;;;;;5090116;28;19928;-73
2023/01/30 06:44:23;;;;;;;;;;;7.30;99.90;;;;;;5089200;28;19928;-71
2023/01/30 06:46:49;;;;;;;;;;;7.20;99.90;;;;;;5575813;22;19912;-72
2023/01/30 06:49:16;;;;;;;;;;;7.30;99.90;;;;;;5072443;28;20175;-72
2023/01/30 06:51:43;;;;;;;;;;;7.30;99.90;;;;;;5069665;28;19929;-72
2023/01/30 06:54:09;;;;;;;;;;;7.30;99.90;;;;;;5070152;28;19947;-72
2023/01/30 06:56:36;;;;;;;;;;;7.30;99.90;;;;;;5071068;28;20317;-72
2023/01/30 06:59:04;;;;;;;;;;;7.30;99.90;;;;;;5070420;28;19928;-73
2023/01/30 07:01:31;;;;;;;;;;;7.40;99.90;;;;;;5081250;22;20028;-76
2023/01/30 07:03:57;;;;;;;;;;;7.40;99.90;;;;;;5047828;28;20015;-76
2023/01/30 07:06:26;;;;;;;;;;;7.40;99.90;;;;;;5051541;28;19925;-76
2023/01/30 07:08:52;;;;;;;;;;;7.50;99.90;;;;;;5047526;28;20004;-74
2023/01/30 07:11:19;;;;;;;;;;;7.50;99.90;;;;;;5035984;28;19929;-75
2023/01/30 07:13:46;;;;;;;;;;;7.50;99.90;;;;;;5055192;28;19978;-75
2023/01/30 07:16:14;;;;;;;;;;;7.50;99.90;;;;;;5032547;28;19929;-75
2023/01/30 07:18:40;;;;;;;;;;;7.50;99.90;;;;;;5050903;28;19947;-75
2023/01/30 07:21:07;;;;;;;;;;;7.60;99.90;;;;;;5049547;28;19929;-75
2023/01/30 07:23:34;;;;;;;;;;;8.10;99.90;;;;;;5052329;28;19969;-75
2023/01/30 07:26:03;;;;;;;;;;;7.60;99.90;;;;;;5053978;28;19975;-75
2023/01/30 07:28:30;;;;;;;;;;;7.60;99.90;;;;;;5037153;28;19931;-74
2023/01/30 07:30:58;;;;;;;;;;;7.60;99.90;;;;;;5032640;28;19939;-75
2023/01/30 07:33:26;;;;;;;;;;;7.60;99.90;;;;;;5050287;28;19974;-75
2023/01/30 07:35:53;;;;;;;;;;;7.60;99.90;;;;;;5049142;28;20356;-75
2023/01/30 07:38:20;;;;;;;;;;;7.60;99.90;;;;;;5030829;28;20031;-75
2023/01/30 07:40:47;;;;;;;;;;;7.60;99.90;;;;;;5049413;28;19936;-75
2023/01/30 07:43:14;;;;;;;;;;;6.80;99.90;;;;;;5042015;28;19948;-75
2023/01/30 07:45:41;;;;;;;;;;;7.70;99.90;;;;;;5050483;28;19925;-75
2023/01/30 07:48:08;;;;;;;;;;;7.70;99.90;;;;;;5045944;28;19936;-74
2023/01/30 07:50:36;;;;;;;;;;;7.60;99.90;;;;;;5031963;28;20008;-75
2023/01/30 07:53:03;;;;;;;;;;;7.60;99.90;;;;;;5046520;28;19986;-74
2023/01/30 07:55:30;;;;;;;;;;;7.60;99.90;;;;;;5031705;28;19929;-74
2023/01/30 07:57:57;;;;;;;;;;;7.70;99.90;;;;;;5032165;28;19928;-74
2023/01/30 08:00:24;;;;;;;;;;;7.80;99.90;;;;;;5047999;28;19929;-74
2023/01/30 08:02:51;;;;;;;;;;;7.70;99.90;;;;;;5031413;28;19925;-74
2023/01/30 08:05:17;;;;;;;;;;;7.70;99.90;;;;;;5031431;28;19956;-74
2023/01/30 08:07:47;;;;;;;;;;;7.70;99.90;;;;;;5049426;28;19929;-75
2023/01/30 08:10:13;;;;;;;;;;;7.50;99.90;;;;;;5047590;28;19928;-75
2023/01/30 08:12:41;;;;;;;;;;;7.60;99.90;;;;;;5030893;28;20332;-75
2023/01/30 08:15:08;;;;;;;;;;;7.60;99.90;;;;;;5048907;28;19938;-75
2023/01/30 08:17:35;;;;;;;;;;;7.60;99.90;;;;;;5048271;28;20428;-76
2023/01/30 08:20:01;;;;;;;;;;;7.80;99.90;;;;;;5048431;28;19929;-76
2023/01/30 08:22:28;;;;;;;;;;;8.00;99.90;;;;;;5048781;28;20231;-76
2023/01/30 08:24:57;;;;;;;;;;;8.20;99.90;;;;;;5048408;28;19925;-75
2023/01/30 08:27:23;;;;;;;;;;;8.40;99.90;;;;;;5049006;28;19925;-76
2023/01/30 08:29:50;;;;;;;;;;;8.10;99.90;;;;;;5048849;28;20011;-75
2023/01/30 08:32:17;;;;;;;;;;;8.50;99.90;;;;;;5048399;28;19948;-76
2023/01/30 08:34:43;;;;;;;;;;;8.50;99.90;;;;;;5031614;28;19925;-75
2023/01/30 08:37:10;;;;;;;;;;;8.40;99.90;;;;;;5031003;28;20561;-76
2023/01/30 08:39:37;;;;;;;;;;;8.00;99.90;;;;;;5030870;28;19963;-76
2023/01/30 08:42:05;;;;;;;;;;;8.30;99.90;;;;;;5053058;28;19928;-75
2023/01/30 08:44:31;;;;;;;;;;;8.30;99.90;;;;;;5053453;28;20408;-75
2023/01/30 08:46:58;;;;;;;;;;;8.30;99.90;;;;;;5033343;28;19940;-75
2023/01/30 08:49:25;;;;;;;;;;;8.30;99.90;;;;;;5051446;28;19929;-75
2023/01/30 08:51:51;;;;;;;;;;;8.30;99.90;;;;;;5046236;28;19929;-75
2023/01/30 08:54:18;;;;;;;;;;;8.30;99.90;;;;;;5055485;28;19940;-75
2023/01/30 08:56:45;;;;;;;;;;;8.60;99.90;;;;;;5031236;28;19928;-75
2023/01/30 08:59:13;;;;;;;;;;;7.90;99.90;;;;;;5033179;28;20406;-75
2023/01/30 09:01:40;;;;;;;;;;;8.30;99.90;;;;;;5052114;28;19941;-76
2023/01/30 09:04:07;;;;;;;;;;;8.30;99.90;;;;;;5053340;28;20014;-75
2023/01/30 09:06:34;;;;;;;;;;;8.40;99.90;;;;;;5056287;28;19929;-75
2023/01/30 09:09:01;;;;;;;;;;;8.10;99.90;;;;;;5061161;28;19928;-75
2023/01/30 09:11:28;;;;;;;;;;;8.40;99.90;;;;;;5044872;28;20027;-75
2023/01/30 09:13:54;;;;;;;;;;;8.10;99.90;;;;;;5050260;28;20294;-75
2023/01/30 09:16:22;;;;;;;;;;;8.40;99.90;;;;;;5042394;28;20012;-75
2023/01/30 09:18:49;;;;;;;;;;;8.50;99.90;;;;;;5040324;28;19937;-76
2023/01/30 09:21:16;;;;;;;;;;;8.50;99.90;;;;;;5057807;28;19932;-76
2023/01/30 09:23:43;;;;;;;;;;;8.90;99.90;;;;;;5041298;28;19936;-75
2023/01/30 09:26:09;;;;;;;;;;;8.50;99.90;;;;;;5057916;28;20432;-76
2023/01/30 09:28:36;;;;;;;;;;;8.60;99.90;;;;;;5054239;28;19924;-75
2023/01/30 09:31:03;;;;;;;;;;;8.60;99.90;;;;;;5037261;28;19929;-75
2023/01/30 09:33:31;;;;;;;;;;;8.70;99.90;;;;;;5052097;28;19956;-76
2023/01/30 09:35:58;;;;;;;;;;;8.70;99.90;;;;;;5036936;28;20007;-75
2023/01/30 09:38:25;;;;;;;;;;;8.60;99.90;;;;;;5034930;28;19936;-75
2023/01/30 09:40:56;;;;;;;;;;;8.80;99.90;;;;;;5034348;28;19929;-75
2023/01/30 09:43:29;;;;;;;;;;;8.80;99.90;;;;;;5053965;28;19935;-75
2023/01/30 09:46:03;;;;;;;;;;;8.90;99.90;;;;;;5052837;28;19948;-75
2023/01/30 09:48:33;;;;;;;;;;;8.80;99.90;;;;;;5055095;28;19929;-76
2023/01/30 09:51:30;;;;;;;;;;;8.80;99.90;;;;;;5052549;28;19933;-75
2023/01/30 09:54:02;;;;;;;;;;;8.90;99.90;;;;;;4989636;28;19930;-75
2023/01/30 09:56:29;;;;;;;;;;;8.90;99.90;;;;;;5038534;28;19998;-75
2023/01/30 09:58:57;;;;;;;;;;;9.00;99.90;;;;;;5034666;28;19988;-75
2023/01/30 10:01:27;;;;;;;;;;;10.30;99.90;;;;;;5051588;28;19929;-75
2023/01/30 10:04:01;;;;;;;;;;;8.80;99.90;;;;;;5051661;28;19929;-75
2023/01/30 10:06:29;;;;;;;;;;;8.80;99.90;;;;;;5052839;28;20043;-75
2023/01/30 10:08:57;;;;;;;;;;;8.80;99.90;;;;;;5052683;28;19935;-74
2023/01/30 10:11:32;;;;;;;;;;;8.80;99.90;;;;;;5050273;28;19951;-75
2023/01/30 10:14:06;;;;;;;;;;;8.80;99.90;;;;;;5037471;28;20380;-75
2023/01/30 10:16:37;;;;;;;;;;;8.60;99.90;;;;;;5050395;28;19932;-75
2023/01/30 10:19:13;;;;;;;;;;;8.60;99.90;;;;;;5031341;28;19968;-75
2023/01/30 10:21:44;;;;;;;;;;;8.70;99.90;;;;;;5050433;28;19928;-76
2023/01/30 10:24:19;;;;;;;;;;;8.70;99.90;;;;;;5045987;28;19996;-75
2023/01/30 10:26:46;;;;;;;;;;;8.70;99.90;;;;;;5051324;28;19928;-75
2023/01/30 10:29:15;;;;;;;;;;;8.70;99.90;;;;;;5034647;28;20333;-75
2023/01/30 10:31:45;;;;;;;;;;;8.70;99.90;;;;;;5052815;28;19928;-75
2023/01/30 10:34:14;;;;;;;;;;;8.80;99.90;;;;;;5054620;28;20069;-75
2023/01/30 10:36:43;;;;;;;;;;;8.80;99.90;;;;;;5034381;28;19990;-75
2023/01/30 10:39:18;;;;;;;;;;;8.80;99.90;;;;;;5051490;28;20227;-75
2023/01/30 10:41:49;;;;;;;;;;;8.80;99.90;;;;;;5047718;28;19928;-75
2023/01/30 10:44:17;;;;;;;;;;;8.80;99.90;;;;;;5030136;28;19928;-74
2023/01/30 10:46:55;;;;;;;;;;;8.80;99.90;;;;;;5049322;28;19928;-74
2023/01/30 10:49:36;;;;;;;;;;;8.70;99.90;;;;;;5060341;28;20139;-74
2023/01/30 10:52:08;;;;;;;;;;;8.70;99.90;;;;;;5047007;28;20017;-75
2023/01/30 10:54:37;;;;;;;;;;;8.80;99.90;;;;;;5040919;28;19964;-76
2023/01/30 10:57:09;;;;;;;;;;;8.80;99.90;;;;;;5044122;28;19928;-75
2023/01/30 10:59:44;;;;;;;;;;;8.80;99.90;;;;;;5044736;28;19987;-75
2023/01/30 11:02:16;;;;;;;;;;;8.90;99.90;;;;;;5046242;28;19939;-75
2023/01/30 11:04:48;;;;;;;;;;;8.90;99.90;;;;;;5028251;28;20031;-76
2023/01/30 11:07:15;;;;;;;;;;;9.00;99.90;;;;;;5050651;28;19928;-76
2023/01/30 11:09:42;;;;;;;;;;;9.00;99.90;;;;;;5032938;28;19925;-75
2023/01/30 11:12:09;;;;;;;;;;;9.20;99.90;;;;;;5052425;28;20443;-77
2023/01/30 11:14:57;;;;;;;;;;;9.20;99.90;;;;;;5052495;28;20407;-77
2023/01/30 11:17:32;;;;;;;;;;;9.20;99.90;;;;;;5056734;28;20016;-75
2023/01/30 11:20:05;;;;;;;;;;;9.20;99.90;;;;;;5056337;28;19978;-74
2023/01/30 11:22:34;;;;;;;;;;;9.30;99.90;;;;;;5050372;28;19960;-74
2023/01/30 11:25:03;;;;;;;;;;;9.20;99.90;;;;;;5059258;28;19936;-76
2023/01/30 11:27:31;;;;;;;;;;;9.30;99.90;;;;;;5033248;28;19928;-78
2023/01/30 11:30:06;;;;;;;;;;;8.90;99.90;;;;;;5050696;28;19936;-78
2023/01/30 11:32:33;;;;;;;;;;;9.30;99.90;;;;;;5050783;28;19928;-75
2023/01/30 11:35:16;;;;;;;;;;;9.30;99.90;;;;;;5030565;28;19933;-77
2023/01/30 11:37:44;;;;;;;;;;;9.30;99.90;;;;;;5049463;28;19924;-75
2023/01/30 11:40:19;;;;;;;;;;;9.40;99.90;;;;;;5053198;28;19944;-74
2023/01/30 11:42:47;;;;;;;;;;;9.30;99.90;;;;;;5051166;28;19956;-76
2023/01/30 11:45:15;;;;;;;;;;;9.30;99.90;;;;;;5059972;28;19978;-75
2023/01/30 11:47:47;;;;;;;;;;;9.30;99.90;;;;;;5055039;28;19929;-77
2023/01/30 11:50:17;;;;;;;;;;;9.40;99.90;;;;;;5036257;28;20023;-75
2023/01/30 11:52:44;;;;;;;;;;;9.40;99.90;;;;;;5030109;28;19929;-76
2023/01/30 11:55:13;;;;;;;;;;;9.40;99.90;;;;;;5049535;28;19929;-77
2023/01/30 11:57:41;;;;;;;;;;;9.40;99.90;;;;;;5048361;28;19939;-77
2023/01/30 12:00:14;;;;;;;;;;;9.40;99.90;;;;;;5047309;28;20262;-75
2023/01/30 12:02:43;;;;;;;;;;;9.60;99.90;;;;;;5046232;28;19932;-76
2023/01/30 12:05:19;;;;;;;;;;;9.30;99.90;;;;;;5029861;28;20436;-76
2023/01/30 12:07:46;;;;;;;;;;;9.30;99.90;;;;;;5044281;28;20035;-76
2023/01/30 12:10:24;;;;;;;;;;;9.40;99.90;;;;;;5025749;28;20364;-75
2023/01/30 12:12:52;;;;;;;;;;;9.40;99.90;;;;;;5047221;28;20043;-77
2023/01/30 12:15:21;;;;;;;;;;;9.60;99.90;;;;;;5047221;28;19947;-76
2023/01/30 12:17:50;;;;;;;;;;;9.80;99.90;;;;;;5043698;28;20358;-77
2023/01/30 12:20:25;;;;;;;;;;;10.10;99.90;;;;;;5047825;28;19932;-75
2023/01/30 12:22:54;;;;;;;;;;;10.10;99.90;;;;;;5031696;28;20354;-75
2023/01/30 12:25:23;;;;;;;;;;;10.20;99.90;;;;;;5048143;28;20409;-74
2023/01/30 12:27:57;;;;;;;;;;;10.10;99.90;;;;;;5031275;28;19943;-74
2023/01/30 12:30:29;;;;;;;;;;;10.00;99.90;;;;;;5046848;28;19960;-75
2023/01/30 12:32:58;;;;;;;;;;;10.00;99.90;;;;;;5057723;28;19932;-75
2023/01/30 12:35:31;;;;;;;;;;;9.90;99.90;;;;;;5050589;28;19935;-74
2023/01/30 12:38:01;;;;;;;;;;;10.00;99.90;;;;;;5033072;28;19932;-75
2023/01/30 12:40:33;;;;;;;;;;;10.00;99.90;;;;;;5052192;28;20002;-75
2023/01/30 12:43:13;;;;;;;;;;;10.00;99.90;;;;;;5050191;28;19972;-74
2023/01/30 12:45:42;;;;;;;;;;;10.00;99.90;;;;;;5048146;28;20070;-74
2023/01/30 12:48:20;;;;;;;;;;;10.00;99.90;;;;;;5047519;28;19955;-76
2023/01/30 12:50:55;;;;;;;;;;;10.00;99.90;;;;;;5047587;28;19924;-76
2023/01/30 12:53:29;;;;;;;;;;;10.00;99.90;;;;;;5043731;28;19929;-78
2023/01/30 12:56:03;;;;;;;;;;;10.00;99.90;;;;;;5049670;28;19936;-77
2023/01/30 12:58:32;;;;;;;;;;;9.90;99.90;;;;;;5034653;28;20590;-76
2023/01/30 13:01:05;;;;;;;;;;;9.90;99.90;;;;;;5035508;28;20310;-77
2023/01/30 13:03:36;;;;;;;;;;;9.90;99.90;;;;;;5080620;22;19929;-75
2023/01/30 13:06:10;;;;;;;;;;;10.00;99.90;;;;;;5063992;28;20032;-73
2023/01/30 13:08:42;;;;;;;;;;;9.90;99.90;;;;;;5067805;28;19937;-78
2023/01/30 13:11:15;;;;;;;;;;;9.90;99.90;;;;;;5067415;28;19932;-73
2023/01/30 13:13:46;;;;;;;;;;;9.90;99.90;;;;;;5595907;22;19932;-73
2023/01/30 13:16:15;;;;;;;;;;;11.50;99.90;;;;;;5068659;28;19932;-74
2023/01/30 13:18:46;;;;;;;;;;;10.00;99.90;;;;;;5068256;28;19933;-73
2023/01/30 13:21:16;;;;;;;;;;;10.00;99.90;;;;;;5063861;28;20190;-73
2023/01/30 13:23:48;;;;;;;;;;;9.90;99.90;;;;;;5045436;28;19924;-76
2023/01/30 13:26:17;;;;;;;;;;;9.80;99.90;;;;;;5041514;28;19933;-73
2023/01/30 13:28:46;;;;;;;;;;;9.70;99.90;;;;;;5038653;28;20453;-74
2023/01/30 13:31:14;;;;;;;;;;;9.70;99.90;;;;;;5048855;28;19936;-74
2023/01/30 13:33:42;;;;;;;;;;;9.70;99.90;;;;;;5042709;28;20214;-73
2023/01/30 13:36:13;;;;;;;;;;;9.80;99.90;;;;;;5044029;28;19929;-74
2023/01/30 13:38:43;;;;;;;;;;;9.90;99.90;;;;;;5049955;28;20424;-78
2023/01/30 13:41:11;;;;;;;;;;;10.40;99.90;;;;;;5061266;28;19976;-77
2023/01/30 13:43:41;;;;;;;;;;;10.00;99.90;;;;;;5070179;28;19924;-80
2023/01/30 13:46:08;;;;;;;;;;;10.00;99.90;;;;;;5067403;28;19923;-79
2023/01/30 13:48:40;;;;;;;;;;;9.70;99.90;;;;;;5071005;28;19957;-80
2023/01/30 13:54:08;;;;;;;;;;;9.80;99.90;;;;;;5201671;22;19931;-82
2023/01/30 13:56:40;;;;;;;;;;;9.80;99.90;;;;;;5072026;28;19913;-82
2023/01/30 13:59:10;;;;;;;;;;;9.80;99.90;;;;;;5078072;28;19913;-83
2023/01/30 14:02:00;;;;;;;;;;;9.70;99.90;;;;;;5059686;28;19940;-83
2023/01/30 14:04:44;;;;;;;;;;;9.70;99.90;;;;;;5050615;28;19955;-83
2023/01/30 14:07:14;;;;;;;;;;;9.60;99.90;;;;;;5058902;28;19936;-83
2023/01/30 14:09:45;;;;;;;;;;;9.60;99.90;;;;;;5056444;28;19937;-83
2023/01/30 14:12:17;;;;;;;;;;;9.70;99.90;;;;;;5041356;28;19936;-83
2023/01/30 14:14:56;;;;;;;;;;;9.80;99.90;;;;;;5058741;28;20456;-83
2023/01/30 14:17:23;;;;;;;;;;;9.50;99.90;;;;;;5060586;28;19932;-83
2023/01/30 14:19:57;;;;;;;;;;;9.40;99.90;;;;;;5058215;28;19935;-84
2023/01/30 14:22:42;;;;;;;;;;;9.50;99.90;;;;;;5053919;28;19929;-83
2023/01/30 14:25:27;;;;;;;;;;;9.40;99.90;;;;;;5039841;28;20363;-83
2023/01/30 14:28:16;;;;;;;;;;;9.40;99.90;;;;;;5036611;28;19939;-82
2023/01/30 14:30:47;;;;;;;;;;;9.40;99.90;;;;;;5047938;28;20386;-83
2023/01/30 14:33:33;;;;;;;;;;;9.40;99.90;;;;;;5056722;28;20011;-83
2023/01/30 14:36:19;;;;;;;;;;;9.40;99.90;;;;;;5027692;28;19929;-83
2023/01/30 14:38:56;;;;;;;;;;;9.40;99.90;;;;;;5038416;28;19982;-83
2023/01/30 14:41:26;;;;;;;;;;;9.60;99.90;;;;;;5047239;28;19928;-82
2023/01/30 14:43:53;;;;;;;;;;;9.40;99.90;;;;;;5045308;28;20230;-83
2023/01/30 14:46:42;;;;;;;;;;;9.40;99.90;;;;;;5047841;28;19940;-84
2023/01/30 14:49:35;;;;;;;;;;;9.40;99.90;;;;;;5043802;28;19979;-83
2023/01/30 14:52:02;;;;;;;;;;;9.20;99.90;;;;;;5011245;28;20338;-84
2023/01/30 14:54:36;;;;;;;;;;;9.20;99.90;;;;;;5050809;28;19935;-82